sensor_id;sensor_type;location;lat;lon;timestamp;pressure;altitude;pressure_sealevel;temperature;humidity
59194;BME280;44967;48.598;15.650;2023-02-14T00:01:50;100232.56;;;0.96;76.20
59194;BME280;44967;48.598;15.650;2023-02-14T00:04:17;100232.22;;;1.09;76.66
59194;BME280;44967;48.598;15.650;2023-02-14T00:06:43;100230.72;;;1.16;76.50
59194;BME280;44967;48.598;15.650;2023-02-14T00:09:17;100231.53;;;1.13;76.65
59194;BME280;44967;48.598;15.650;2023-02-14T00:11:43;100224.22;;;1.27;77.17
59194;BME280;44967;48.598;15.650;2023-02-14T00:14:09;100226.72;;;1.24;75.91
59194;BME280;44967;48.598;15.650;2023-02-14T00:16:54;100225.94;;;1.26;76.51
59194;BME280;44967;48.598;15.650;2023-02-14T00:19:20;100222.66;;;1.32;76.24
59194;BME280;44967;48.598;15.650;2023-02-14T00:21:46;100216.53;;;1.30;75.94
59194;BME280;44967;48.598;15.650;2023-02-14T00:24:14;100230.13;;;1.23;75.99
59194;BME280;44967;48.598;15.650;2023-02-14T00:26:41;100227.78;;;1.29;75.96
59194;BME280;44967;48.598;15.650;2023-02-14T00:29:09;100224.38;;;1.31;76.00
59194;BME280;44967;48.598;15.650;2023-02-14T00:31:35;100210.09;;;1.20;76.12
59194;BME280;44967;48.598;15.650;2023-02-14T00:34:02;100203.53;;;1.31;76.62
59194;BME280;44967;48.598;15.650;2023-02-14T00:36:28;100208.31;;;1.43;77.25
59194;BME280;44967;48.598;15.650;2023-02-14T00:38:54;100205.00;;;1.47;75.85
59194;BME280;44967;48.598;15.650;2023-02-14T00:41:20;100206.44;;;1.39;75.92
59194;BME280;44967;48.598;15.650;2023-02-14T00:43:47;100206.44;;;1.39;75.74
59194;BME280;44967;48.598;15.650;2023-02-14T00:46:13;100203.78;;;1.37;76.69
59194;BME280;44967;48.598;15.650;2023-02-14T00:48:40;100204.72;;;1.39;76.75
59194;BME280;44967;48.598;15.650;2023-02-14T00:51:07;100212.69;;;1.44;76.11
59194;BME280;44967;48.598;15.650;2023-02-14T00:53:33;100210.09;;;1.44;75.79
59194;BME280;44967;48.598;15.650;2023-02-14T00:55:59;100213.41;;;1.40;76.27
59194;BME280;44967;48.598;15.650;2023-02-14T00:58:25;100210.16;;;1.46;76.28
59194;BME280;44967;48.598;15.650;2023-02-14T01:00:51;100218.97;;;1.49;75.62
59194;BME280;44967;48.598;15.650;2023-02-14T01:03:17;100212.16;;;1.53;75.67
59194;BME280;44967;48.598;15.650;2023-02-14T01:05:42;100208.66;;;1.52;76.29
59194;BME280;44967;48.598;15.650;2023-02-14T01:08:08;100202.06;;;1.62;75.93
59194;BME280;44967;48.598;15.650;2023-02-14T01:10:35;100199.22;;;1.56;75.86
59194;BME280;44967;48.598;15.650;2023-02-14T01:13:01;100201.22;;;1.63;76.22
59194;BME280;44967;48.598;15.650;2023-02-14T01:15:28;100199.78;;;1.71;76.50
59194;BME280;44967;48.598;15.650;2023-02-14T01:17:53;100185.84;;;1.70;76.19
59194;BME280;44967;48.598;15.650;2023-02-14T01:20:19;100188.31;;;1.66;76.19
59194;BME280;44967;48.598;15.650;2023-02-14T01:22:44;100177.59;;;1.58;76.65
59194;BME280;44967;48.598;15.650;2023-02-14T01:25:11;100182.28;;;1.43;76.92
59194;BME280;44967;48.598;15.650;2023-02-14T01:27:36;100174.00;;;1.55;76.47
59194;BME280;44967;48.598;15.650;2023-02-14T01:30:02;100184.59;;;1.59;76.28
59194;BME280;44967;48.598;15.650;2023-02-14T01:32:30;100169.19;;;1.65;76.12
59194;BME280;44967;48.598;15.650;2023-02-14T01:34:56;100181.53;;;1.71;76.30
59194;BME280;44967;48.598;15.650;2023-02-14T01:37:21;100181.69;;;1.75;76.08
59194;BME280;44967;48.598;15.650;2023-02-14T01:39:47;100178.34;;;1.79;76.48
59194;BME280;44967;48.598;15.650;2023-02-14T01:42:12;100168.75;;;1.78;76.02
59194;BME280;44967;48.598;15.650;2023-02-14T01:47:07;100172.06;;;1.73;76.58
59194;BME280;44967;48.598;15.650;2023-02-14T01:49:50;100168.19;;;1.62;75.93
59194;BME280;44967;48.598;15.650;2023-02-14T01:52:48;100170.22;;;1.70;75.79
59194;BME280;44967;48.598;15.650;2023-02-14T01:55:19;100158.03;;;1.69;75.98
59194;BME280;44967;48.598;15.650;2023-02-14T01:57:49;100156.19;;;1.67;76.07
59194;BME280;44967;48.598;15.650;2023-02-14T02:00:17;100151.06;;;1.68;76.36
59194;BME280;44967;48.598;15.650;2023-02-14T02:03:02;100150.09;;;1.66;76.58
59194;BME280;44967;48.598;15.650;2023-02-14T02:05:29;100146.66;;;1.67;75.99
59194;BME280;44967;48.598;15.650;2023-02-14T02:07:58;100138.81;;;1.66;76.33
59194;BME280;44967;48.598;15.650;2023-02-14T02:10:24;100139.31;;;1.56;76.15
59194;BME280;44967;48.598;15.650;2023-02-14T02:12:52;100144.34;;;1.51;76.29
59194;BME280;44967;48.598;15.650;2023-02-14T02:15:18;100135.63;;;1.49;77.23
59194;BME280;44967;48.598;15.650;2023-02-14T02:26:48;100125.41;;;1.55;76.80
59194;BME280;44967;48.598;15.650;2023-02-14T02:43:16;100133.81;;;1.72;76.68
59194;BME280;44967;48.598;15.650;2023-02-14T02:46:01;100144.16;;;1.70;76.96
59194;BME280;44967;48.598;15.650;2023-02-14T02:52:19;100138.22;;;1.74;76.64
59194;BME280;44967;48.598;15.650;2023-02-14T02:55:13;100141.97;;;1.82;77.23
59194;BME280;44967;48.598;15.650;2023-02-14T02:57:42;100134.78;;;1.75;77.16
59194;BME280;44967;48.598;15.650;2023-02-14T03:00:10;100147.31;;;1.85;76.92
59194;BME280;44967;48.598;15.650;2023-02-14T03:02:40;100141.06;;;1.80;76.13
59194;BME280;44967;48.598;15.650;2023-02-14T03:05:28;100141.94;;;1.81;77.00
59194;BME280;44967;48.598;15.650;2023-02-14T03:07:54;100137.50;;;1.78;76.89
59194;BME280;44967;48.598;15.650;2023-02-14T03:10:28;100139.38;;;1.82;77.65
59194;BME280;44967;48.598;15.650;2023-02-14T03:21:55;100137.25;;;1.98;76.58
59194;BME280;44967;48.598;15.650;2023-02-14T03:24:51;100138.06;;;1.95;77.13
59194;BME280;44967;48.598;15.650;2023-02-14T03:27:34;100137.88;;;1.89;76.31
59194;BME280;44967;48.598;15.650;2023-02-14T03:30:11;100135.09;;;1.84;76.93
59194;BME280;44967;48.598;15.650;2023-02-14T03:33:04;100139.69;;;1.92;77.21
59194;BME280;44967;48.598;15.650;2023-02-14T03:35:35;100135.44;;;1.95;76.20
59194;BME280;44967;48.598;15.650;2023-02-14T03:38:24;100130.31;;;1.97;76.39
59194;BME280;44967;48.598;15.650;2023-02-14T03:40:56;100132.28;;;2.04;77.26
59194;BME280;44967;48.598;15.650;2023-02-14T03:43:30;100124.63;;;2.10;76.25
59194;BME280;44967;48.598;15.650;2023-02-14T03:46:05;100120.31;;;2.10;77.18
59194;BME280;44967;48.598;15.650;2023-02-14T03:48:34;100116.81;;;2.10;77.05
59194;BME280;44967;48.598;15.650;2023-02-14T03:51:01;100117.66;;;2.09;76.74
59194;BME280;44967;48.598;15.650;2023-02-14T03:53:30;100116.78;;;2.08;76.64
59194;BME280;44967;48.598;15.650;2023-02-14T03:55:58;100115.06;;;2.09;76.32
59194;BME280;44967;48.598;15.650;2023-02-14T03:58:30;100116.63;;;2.04;76.45
59194;BME280;44967;48.598;15.650;2023-02-14T04:01:06;100113.06;;;2.02;76.42
59194;BME280;44967;48.598;15.650;2023-02-14T04:03:38;100113.63;;;1.92;77.68
59194;BME280;44967;48.598;15.650;2023-02-14T04:06:05;100111.34;;;2.02;77.17
59194;BME280;44967;48.598;15.650;2023-02-14T04:08:31;100110.59;;;2.05;77.33
59194;BME280;44967;48.598;15.650;2023-02-14T04:10:58;100111.59;;;2.10;77.28
59194;BME280;44967;48.598;15.650;2023-02-14T04:13:25;100108.97;;;2.08;77.26
59194;BME280;44967;48.598;15.650;2023-02-14T04:15:51;100102.06;;;2.10;77.21
59194;BME280;44967;48.598;15.650;2023-02-14T04:18:16;100107.34;;;2.12;76.77
59194;BME280;44967;48.598;15.650;2023-02-14T04:21:00;100108.41;;;2.18;77.51
59194;BME280;44967;48.598;15.650;2023-02-14T04:23:26;100111.16;;;2.23;77.05
59194;BME280;44967;48.598;15.650;2023-02-14T04:25:51;100110.34;;;2.24;77.04
59194;BME280;44967;48.598;15.650;2023-02-14T04:28:17;100108.38;;;2.17;76.69
59194;BME280;44967;48.598;15.650;2023-02-14T04:30:43;100111.16;;;2.23;76.55
59194;BME280;44967;48.598;15.650;2023-02-14T04:33:08;100114.72;;;2.25;76.13
59194;BME280;44967;48.598;15.650;2023-02-14T04:35:35;100103.25;;;2.20;76.39
59194;BME280;44967;48.598;15.650;2023-02-14T04:38:01;100112.97;;;2.25;76.68
59194;BME280;44967;48.598;15.650;2023-02-14T04:40:27;100113.72;;;2.21;76.73
59194;BME280;44967;48.598;15.650;2023-02-14T04:42:53;100106.97;;;2.28;76.73
59194;BME280;44967;48.598;15.650;2023-02-14T04:45:18;100115.84;;;2.33;76.74
59194;BME280;44967;48.598;15.650;2023-02-14T04:47:44;100111.09;;;2.21;76.34
59194;BME280;44967;48.598;15.650;2023-02-14T04:50:11;100106.75;;;2.20;76.66
59194;BME280;44967;48.598;15.650;2023-02-14T04:52:36;100099.00;;;2.23;76.70
59194;BME280;44967;48.598;15.650;2023-02-14T04:55:03;100105.03;;;2.21;76.61
59194;BME280;44967;48.598;15.650;2023-02-14T04:57:29;100098.06;;;2.21;76.87
59194;BME280;44967;48.598;15.650;2023-02-14T04:59:55;100098.31;;;2.29;77.22
59194;BME280;44967;48.598;15.650;2023-02-14T05:02:20;100100.19;;;2.33;76.38
59194;BME280;44967;48.598;15.650;2023-02-14T05:04:46;100095.97;;;2.38;76.58
59194;BME280;44967;48.598;15.650;2023-02-14T05:07:12;100103.72;;;2.35;76.19
59194;BME280;44967;48.598;15.650;2023-02-14T05:09:37;100096.84;;;2.37;76.58
59194;BME280;44967;48.598;15.650;2023-02-14T05:12:03;100089.84;;;2.36;76.77
59194;BME280;44967;48.598;15.650;2023-02-14T05:14:28;100092.38;;;2.33;76.76
59194;BME280;44967;48.598;15.650;2023-02-14T05:16:54;100095.75;;;2.30;76.32
59194;BME280;44967;48.598;15.650;2023-02-14T05:19:20;100085.38;;;2.32;75.96
59194;BME280;44967;48.598;15.650;2023-02-14T05:21:45;100089.63;;;2.30;76.58
59194;BME280;44967;48.598;15.650;2023-02-14T05:24:12;100089.78;;;2.34;76.40
59194;BME280;44967;48.598;15.650;2023-02-14T05:26:37;100085.63;;;2.41;76.80
59194;BME280;44967;48.598;15.650;2023-02-14T05:29:03;100091.81;;;2.43;77.26
59194;BME280;44967;48.598;15.650;2023-02-14T05:31:28;100092.91;;;2.51;76.93
59194;BME280;44967;48.598;15.650;2023-02-14T05:33:54;100100.16;;;2.61;76.91
59194;BME280;44967;48.598;15.650;2023-02-14T05:36:19;100100.41;;;2.69;77.01
59194;BME280;44967;48.598;15.650;2023-02-14T05:38:45;100105.56;;;2.96;75.99
59194;BME280;44967;48.598;15.650;2023-02-14T05:41:10;100099.41;;;2.94;75.79
59194;BME280;44967;48.598;15.650;2023-02-14T05:43:36;100098.66;;;2.98;76.21
59194;BME280;44967;48.598;15.650;2023-02-14T05:46:02;100093.78;;;3.10;76.08
59194;BME280;44967;48.598;15.650;2023-02-14T05:48:28;100100.03;;;3.16;75.59
59194;BME280;44967;48.598;15.650;2023-02-14T05:50:53;100100.03;;;3.16;76.41
59194;BME280;44967;48.598;15.650;2023-02-14T05:53:19;100102.78;;;3.21;76.29
59194;BME280;44967;48.598;15.650;2023-02-14T05:55:44;100103.00;;;3.28;76.25
59194;BME280;44967;48.598;15.650;2023-02-14T05:58:10;100108.28;;;3.30;75.50
59194;BME280;44967;48.598;15.650;2023-02-14T06:00:37;100116.25;;;3.35;76.48
59194;BME280;44967;48.598;15.650;2023-02-14T06:03:02;100120.50;;;3.31;76.01
59194;BME280;44967;48.598;15.650;2023-02-14T06:05:28;100106.69;;;3.35;76.93
59194;BME280;44967;48.598;15.650;2023-02-14T06:07:54;100118.78;;;3.31;76.14
59194;BME280;44967;48.598;15.650;2023-02-14T06:10:21;100124.03;;;3.33;76.56
59194;BME280;44967;48.598;15.650;2023-02-14T06:12:48;100120.50;;;3.31;77.47
59194;BME280;44967;48.598;15.650;2023-02-14T06:15:14;100129.31;;;3.35;76.92
59194;BME280;44967;48.598;15.650;2023-02-14T06:17:40;100118.88;;;3.36;77.25
59194;BME280;44967;48.598;15.650;2023-02-14T06:20:06;100115.44;;;3.37;77.75
59194;BME280;44967;48.598;15.650;2023-02-14T06:22:34;100127.72;;;3.40;77.38
59194;BME280;44967;48.598;15.650;2023-02-14T06:25:00;100129.75;;;3.51;76.97
59194;BME280;44967;48.598;15.650;2023-02-14T06:27:25;100139.97;;;3.42;77.45
59194;BME280;44967;48.598;15.650;2023-02-14T06:29:52;100132.94;;;3.40;77.58
59194;BME280;44967;48.598;15.650;2023-02-14T06:32:18;100137.22;;;3.38;77.47
59194;BME280;44967;48.598;15.650;2023-02-14T06:34:43;100132.28;;;3.48;77.55
59194;BME280;44967;48.598;15.650;2023-02-14T06:37:09;100132.31;;;3.50;76.81
59194;BME280;44967;48.598;15.650;2023-02-14T06:39:35;100129.66;;;3.48;77.43
59194;BME280;44967;48.598;15.650;2023-02-14T06:42:00;100135.75;;;3.47;76.97
59194;BME280;44967;48.598;15.650;2023-02-14T06:44:26;100134.88;;;3.48;77.26
59194;BME280;44967;48.598;15.650;2023-02-14T06:46:51;100140.09;;;3.47;77.32
59194;BME280;44967;48.598;15.650;2023-02-14T06:49:17;100143.59;;;3.47;77.08
59194;BME280;44967;48.598;15.650;2023-02-14T06:51:42;100141.31;;;3.59;77.21
59194;BME280;44967;48.598;15.650;2023-02-14T06:54:09;100139.34;;;3.51;76.71
59194;BME280;44967;48.598;15.650;2023-02-14T06:56:34;100146.28;;;3.50;77.77
59194;BME280;44967;48.598;15.650;2023-02-14T06:59:00;100143.69;;;3.52;77.13
59194;BME280;44967;48.598;15.650;2023-02-14T07:01:25;100146.53;;;3.59;76.92
59194;BME280;44967;48.598;15.650;2023-02-14T07:03:51;100145.59;;;3.57;76.85
59194;BME280;44967;48.598;15.650;2023-02-14T07:06:16;100143.13;;;3.62;76.57
59194;BME280;44967;48.598;15.650;2023-02-14T07:08:42;100139.69;;;3.64;77.31
59194;BME280;44967;48.598;15.650;2023-02-14T07:11:07;100139.63;;;3.61;77.05
59194;BME280;44967;48.598;15.650;2023-02-14T07:13:33;100143.31;;;3.69;76.91
59194;BME280;44967;48.598;15.650;2023-02-14T07:15:58;100139.81;;;3.69;76.87
59194;BME280;44967;48.598;15.650;2023-02-14T07:18:25;100135.28;;;3.62;76.86
59194;BME280;44967;48.598;15.650;2023-02-14T07:20:50;100140.44;;;3.60;76.95
59194;BME280;44967;48.598;15.650;2023-02-14T07:23:16;100133.75;;;3.71;76.91
59194;BME280;44967;48.598;15.650;2023-02-14T07:25:42;100142.81;;;3.84;76.91
59194;BME280;44967;48.598;15.650;2023-02-14T07:28:07;100147.94;;;3.79;76.36
59194;BME280;44967;48.598;15.650;2023-02-14T07:30:33;100142.69;;;3.79;76.57
59194;BME280;44967;48.598;15.650;2023-02-14T07:32:59;100136.69;;;3.84;76.36
59194;BME280;44967;48.598;15.650;2023-02-14T07:35:25;100134.75;;;3.75;76.53
59194;BME280;44967;48.598;15.650;2023-02-14T07:37:50;100131.41;;;3.80;76.99
59194;BME280;44967;48.598;15.650;2023-02-14T07:40:16;100138.47;;;3.83;76.60
59194;BME280;44967;48.598;15.650;2023-02-14T07:42:42;100139.31;;;3.84;76.65
59194;BME280;44967;48.598;15.650;2023-02-14T07:45:08;100148.81;;;3.80;77.25
59194;BME280;44967;48.598;15.650;2023-02-14T07:47:34;100148.22;;;3.90;76.53
59194;BME280;44967;48.598;15.650;2023-02-14T07:50:00;100153.41;;;3.89;76.34
59194;BME280;44967;48.598;15.650;2023-02-14T07:52:25;100156.75;;;3.83;76.71
59194;BME280;44967;48.598;15.650;2023-02-14T07:54:51;100155.91;;;3.84;76.73
59194;BME280;44967;48.598;15.650;2023-02-14T07:57:16;100161.06;;;3.81;76.25
59194;BME280;44967;48.598;15.650;2023-02-14T07:59:42;100156.53;;;3.75;76.62
59194;BME280;44967;48.598;15.650;2023-02-14T08:02:09;100152.38;;;3.84;76.68
59194;BME280;44967;48.598;15.650;2023-02-14T08:04:36;100148.88;;;3.82;77.19
59194;BME280;44967;48.598;15.650;2023-02-14T08:07:02;100156.06;;;3.90;76.82
59194;BME280;44967;48.598;15.650;2023-02-14T08:09:27;100148.03;;;3.83;76.97
59194;BME280;44967;48.598;15.650;2023-02-14T08:11:54;100147.97;;;3.81;77.54
59194;BME280;44967;48.598;15.650;2023-02-14T08:14:40;100155.00;;;3.84;76.69
59194;BME280;44967;48.598;15.650;2023-02-14T08:17:05;100157.16;;;4.00;76.06
59194;BME280;44967;48.598;15.650;2023-02-14T08:19:33;100146.03;;;4.07;76.49
59194;BME280;44967;48.598;15.650;2023-02-14T08:21:58;100150.91;;;3.93;76.37
59194;BME280;44967;48.598;15.650;2023-02-14T08:24:24;100142.41;;;4.02;76.32
59194;BME280;44967;48.598;15.650;2023-02-14T08:26:50;100152.88;;;4.02;76.45
59194;BME280;44967;48.598;15.650;2023-02-14T08:29:17;100150.09;;;3.96;76.33
59194;BME280;44967;48.598;15.650;2023-02-14T08:31:42;100147.47;;;3.96;76.06
59194;BME280;44967;48.598;15.650;2023-02-14T08:34:08;100144.97;;;4.00;76.37
59194;BME280;44967;48.598;15.650;2023-02-14T08:36:33;100151.88;;;3.97;76.21
59194;BME280;44967;48.598;15.650;2023-02-14T08:39:00;100160.16;;;4.13;75.74
59194;BME280;44967;48.598;15.650;2023-02-14T08:41:26;100164.13;;;3.99;75.90
59194;BME280;44967;48.598;15.650;2023-02-14T08:43:51;100160.66;;;3.99;75.88
59194;BME280;44967;48.598;15.650;2023-02-14T08:46:17;100167.56;;;3.97;76.04
59194;BME280;44967;48.598;15.650;2023-02-14T08:48:43;100161.00;;;4.12;75.32
59194;BME280;44967;48.598;15.650;2023-02-14T08:51:11;100162.00;;;4.17;75.61
59194;BME280;44967;48.598;15.650;2023-02-14T08:53:38;100159.25;;;4.13;75.72
59194;BME280;44967;48.598;15.650;2023-02-14T08:56:05;100157.34;;;4.06;75.68
59194;BME280;44967;48.598;15.650;2023-02-14T08:58:31;100152.19;;;4.09;75.65
59194;BME280;44967;48.598;15.650;2023-02-14T09:00:57;100159.38;;;4.17;75.43
59194;BME280;44967;48.598;15.650;2023-02-14T09:03:24;100165.63;;;4.24;74.70
59194;BME280;44967;48.598;15.650;2023-02-14T09:05:49;100164.16;;;4.34;75.11
59194;BME280;44967;48.598;15.650;2023-02-14T09:08:15;100165.81;;;4.32;74.30
59194;BME280;44967;48.598;15.650;2023-02-14T09:10:40;100160.56;;;4.30;74.73
59194;BME280;44967;48.598;15.650;2023-02-14T09:13:06;100168.56;;;4.36;73.94
59194;BME280;44967;48.598;15.650;2023-02-14T09:15:31;100166.75;;;4.34;74.79
59194;BME280;44967;48.598;15.650;2023-02-14T09:17:57;100168.50;;;4.33;74.23
59194;BME280;44967;48.598;15.650;2023-02-14T09:20:23;100174.88;;;4.44;74.25
59194;BME280;44967;48.598;15.650;2023-02-14T09:22:49;100173.44;;;4.58;74.01
59194;BME280;44967;48.598;15.650;2023-02-14T09:25:15;100187.59;;;4.65;73.25
59194;BME280;44967;48.598;15.650;2023-02-14T09:27:41;100177.16;;;4.31;73.71
59194;BME280;44967;48.598;15.650;2023-02-14T09:30:07;100177.41;;;4.41;73.66
59194;BME280;44967;48.598;15.650;2023-02-14T09:32:33;100180.16;;;4.46;73.46
59194;BME280;44967;48.598;15.650;2023-02-14T09:34:59;100181.19;;;4.18;73.76
59194;BME280;44967;48.598;15.650;2023-02-14T09:37:25;100179.19;;;4.42;73.35
59194;BME280;44967;48.598;15.650;2023-02-14T09:39:51;100171.28;;;4.41;73.59
59194;BME280;44967;48.598;15.650;2023-02-14T09:45:04;100175.69;;;4.42;73.42
59194;BME280;44967;48.598;15.650;2023-02-14T09:47:43;100175.03;;;4.50;73.20
59194;BME280;44967;48.598;15.650;2023-02-14T09:50:35;100177.91;;;4.62;72.88
59194;BME280;44967;48.598;15.650;2023-02-14T09:53:12;100174.16;;;4.51;73.30
59194;BME280;44967;48.598;15.650;2023-02-14T10:06:57;100181.06;;;4.48;72.69
59194;BME280;44967;48.598;15.650;2023-02-14T10:11:53;100181.22;;;4.55;72.38
59194;BME280;44967;48.598;15.650;2023-02-14T10:14:23;100174.19;;;4.53;71.46
59194;BME280;44967;48.598;15.650;2023-02-14T10:16:53;100176.53;;;4.41;72.26
59194;BME280;44967;48.598;15.650;2023-02-14T10:19:33;100168.63;;;4.39;71.89
59194;BME280;44967;48.598;15.650;2023-02-14T10:22:02;100165.75;;;4.64;71.67
59194;BME280;44967;48.598;15.650;2023-02-14T10:24:42;100163.25;;;4.70;70.98
59194;BME280;44967;48.598;15.650;2023-02-14T10:27:29;100178.00;;;4.65;70.86
59194;BME280;44967;48.598;15.650;2023-02-14T10:29:55;100166.66;;;4.66;70.67
59194;BME280;44967;48.598;15.650;2023-02-14T10:32:49;100172.09;;;4.75;70.89
59194;BME280;44967;48.598;15.650;2023-02-14T10:38:25;100161.69;;;4.79;69.53
59194;BME280;44967;48.598;15.650;2023-02-14T10:41:17;100161.41;;;4.65;70.10
59194;BME280;44967;48.598;15.650;2023-02-14T10:47:02;100157.47;;;4.84;70.23
59194;BME280;44967;48.598;15.650;2023-02-14T10:49:46;100152.16;;;4.81;69.84
59194;BME280;44967;48.598;15.650;2023-02-14T10:52:28;100154.72;;;4.79;69.81
59194;BME280;44967;48.598;15.650;2023-02-14T10:55:09;100151.31;;;4.83;70.17
59194;BME280;44967;48.598;15.650;2023-02-14T10:57:43;100151.66;;;4.97;69.29
59194;BME280;44967;48.598;15.650;2023-02-14T11:02:50;100146.25;;;4.89;69.35
59194;BME280;44967;48.598;15.650;2023-02-14T11:05:40;100138.84;;;4.71;69.61
59194;BME280;44967;48.598;15.650;2023-02-14T11:08:27;100143.31;;;4.75;69.36
59194;BME280;44967;48.598;15.650;2023-02-14T11:13:27;100138.97;;;5.18;68.77
59194;BME280;44967;48.598;15.650;2023-02-14T11:15:53;100142.53;;;5.20;68.89
59194;BME280;44967;48.598;15.650;2023-02-14T11:18:25;100134.72;;;5.23;68.45
59194;BME280;44967;48.598;15.650;2023-02-14T11:21:00;100138.03;;;5.14;68.30
59194;BME280;44967;48.598;15.650;2023-02-14T11:23:31;100136.03;;;5.03;68.18
59194;BME280;44967;48.598;15.650;2023-02-14T11:25:57;100132.84;;;4.75;68.37
59194;BME280;44967;48.598;15.650;2023-02-14T11:28:25;100135.97;;;5.00;68.03
59194;BME280;44967;48.598;15.650;2023-02-14T11:30:52;100133.19;;;4.92;68.74
59194;BME280;44967;48.598;15.650;2023-02-14T11:35:57;100121.41;;;5.14;67.41
59194;BME280;44967;48.598;15.650;2023-02-14T11:38:27;100114.28;;;5.07;67.91
59194;BME280;44967;48.598;15.650;2023-02-14T11:40:56;100116.00;;;5.05;68.24
59194;BME280;44967;48.598;15.650;2023-02-14T11:43:33;100117.69;;;5.01;68.46
59194;BME280;44967;48.598;15.650;2023-02-14T11:46:13;100111.63;;;5.04;67.79
59194;BME280;44967;48.598;15.650;2023-02-14T11:48:54;100117.16;;;5.17;67.92
59194;BME280;44967;48.598;15.650;2023-02-14T11:51:26;100101.59;;;5.25;67.79
59194;BME280;44967;48.598;15.650;2023-02-14T11:53:55;100100.94;;;5.38;67.53
59194;BME280;44967;48.598;15.650;2023-02-14T11:56:22;100102.47;;;5.27;67.04
59194;BME280;44967;48.598;15.650;2023-02-14T11:58:53;100106.94;;;5.31;67.09
59194;BME280;44967;48.598;15.650;2023-02-14T12:01:25;100099.59;;;5.13;68.41
59194;BME280;44967;48.598;15.650;2023-02-14T12:03:53;100099.50;;;5.09;68.34
59194;BME280;44967;48.598;15.650;2023-02-14T12:06:27;100100.66;;;5.23;67.56
59194;BME280;44967;48.598;15.650;2023-02-14T12:12:16;100087.69;;;5.31;67.65
59194;BME280;44967;48.598;15.650;2023-02-14T12:14:42;100098.44;;;5.44;67.55
59194;BME280;44967;48.598;15.650;2023-02-14T12:17:30;100099.41;;;5.48;67.03
59194;BME280;44967;48.598;15.650;2023-02-14T12:23:04;100081.06;;;5.06;67.84
59194;BME280;44967;48.598;15.650;2023-02-14T12:26:02;100083.28;;;5.30;67.88
59194;BME280;44967;48.598;15.650;2023-02-14T12:28:38;100077.41;;;5.40;67.81
59194;BME280;44967;48.598;15.650;2023-02-14T12:31:12;100070.38;;;5.39;67.59
59194;BME280;44967;48.598;15.650;2023-02-14T12:33:38;100068.91;;;5.53;67.19
59194;BME280;44967;48.598;15.650;2023-02-14T12:38:51;100067.75;;;5.37;66.99
59194;BME280;44967;48.598;15.650;2023-02-14T12:41:39;100068.81;;;5.50;67.34
59194;BME280;44967;48.598;15.650;2023-02-14T12:46:58;100071.22;;;5.36;67.21
59194;BME280;44967;48.598;15.650;2023-02-14T12:52:37;100071.31;;;5.42;67.38
59194;BME280;44967;48.598;15.650;2023-02-14T13:00:37;100070.50;;;5.45;66.62
59194;BME280;44967;48.598;15.650;2023-02-14T13:06:12;100064.69;;;5.62;66.50
59194;BME280;44967;48.598;15.650;2023-02-14T13:20:20;100061.91;;;5.53;66.94
59194;BME280;44967;48.598;15.650;2023-02-14T13:22:51;100051.75;;;5.72;65.82
59194;BME280;44967;48.598;15.650;2023-02-14T13:25:28;100055.22;;;5.70;65.80
59194;BME280;44967;48.598;15.650;2023-02-14T13:27:59;100049.75;;;5.57;65.55
59194;BME280;44967;48.598;15.650;2023-02-14T13:30:32;100050.09;;;5.77;65.74
59194;BME280;44967;48.598;15.650;2023-02-14T13:33:06;100044.44;;;6.03;65.81
59194;BME280;44967;48.598;15.650;2023-02-14T13:35:33;100043.34;;;5.91;65.83
59194;BME280;44967;48.598;15.650;2023-02-14T13:38:03;100045.94;;;5.89;66.72
59194;BME280;44967;48.598;15.650;2023-02-14T13:40:31;100053.09;;;5.98;65.09
59194;BME280;44967;48.598;15.650;2023-02-14T13:42:59;100057.97;;;5.78;66.20
59194;BME280;44967;48.598;15.650;2023-02-14T13:48:14;100049.94;;;5.67;66.36
59194;BME280;44967;48.598;15.650;2023-02-14T13:50:52;100045.78;;;5.80;66.34
59194;BME280;44967;48.598;15.650;2023-02-14T13:58:49;100038.09;;;5.91;65.80
59194;BME280;44967;48.598;15.650;2023-02-14T14:01:43;100040.03;;;6.02;65.52
59194;BME280;44967;48.598;15.650;2023-02-14T14:17:41;100033.66;;;5.87;64.62
59194;BME280;44967;48.598;15.650;2023-02-14T14:20:45;100039.66;;;5.81;64.22
59194;BME280;44967;48.598;15.650;2023-02-14T14:23:33;100035.81;;;5.59;64.83
59194;BME280;44967;48.598;15.650;2023-02-14T14:26:00;100028.34;;;5.85;64.71
59194;BME280;44967;48.598;15.650;2023-02-14T14:28:27;100033.59;;;5.84;64.64
59194;BME280;44967;48.598;15.650;2023-02-14T14:30:55;100035.25;;;5.79;65.05
59194;BME280;44967;48.598;15.650;2023-02-14T14:33:28;100021.25;;;5.77;65.43
59194;BME280;44967;48.598;15.650;2023-02-14T14:36:02;100017.72;;;5.76;64.53
59194;BME280;44967;48.598;15.650;2023-02-14T14:38:29;100010.75;;;5.77;64.98
59194;BME280;44967;48.598;15.650;2023-02-14T14:40:55;100008.25;;;5.86;65.04
59194;BME280;44967;48.598;15.650;2023-02-14T14:43:28;100002.69;;;5.66;64.86
59194;BME280;44967;48.598;15.650;2023-02-14T14:45:56;100014.66;;;5.50;65.47
59194;BME280;44967;48.598;15.650;2023-02-14T14:48:37;99999.06;;;5.58;65.59
59194;BME280;44967;48.598;15.650;2023-02-14T14:51:05;100002.31;;;5.43;65.47
59194;BME280;44967;48.598;15.650;2023-02-14T14:54:19;100003.81;;;5.29;66.30
59194;BME280;44967;48.598;15.650;2023-02-14T14:56:53;100001.13;;;5.26;66.04
59194;BME280;44967;48.598;15.650;2023-02-14T15:01:47;100006.34;;;5.26;66.22
59194;BME280;44967;48.598;15.650;2023-02-14T15:04:23;100000.09;;;5.16;66.68
59194;BME280;44967;48.598;15.650;2023-02-14T15:06:49;99998.34;;;5.17;67.32
59194;BME280;44967;48.598;15.650;2023-02-14T15:09:21;99998.16;;;5.08;66.89
59194;BME280;44967;48.598;15.650;2023-02-14T15:11:49;100002.47;;;5.06;66.95